Time;durP1;ratioP1;P1;durP2;ratioP2;P2;SDS_P1;SDS_P2;PMS_P1;PMS_P2;Temp;Humidity;BMP_temperature;BMP_pressure;BME280_temperature;BME280_humidity;BME280_pressure;Samples;Min_cycle;Max_cycle;Signal;HPM_P1;HPM_P2
2024/01/07 00:01:50;;;;;;;15.35;9.45;;;;;;;1.77;100.00;101815.81;10411867;28;20079;-69
2024/01/07 00:06:51;;;;;;;13.43;10.25;;;;;;;1.74;100.00;101821.41;10411197;28;20499;-69
2024/01/07 00:11:51;;;;;;;11.60;8.77;;;;;;;1.76;100.00;101824.81;10411516;28;20040;-69
2024/01/07 00:16:51;;;;;;;10.77;9.65;;;;;;;1.81;100.00;101830.63;10411306;28;20120;-69
2024/01/07 00:21:52;;;;;;;12.07;9.73;;;;;;;1.81;100.00;101828.81;10412581;28;20029;-69
2024/01/07 00:26:52;;;;;;;10.98;9.63;;;;;;;1.73;100.00;101841.06;10412775;28;20034;-69
2024/01/07 00:31:53;;;;;;;11.75;10.60;;;;;;;1.78;100.00;101841.53;10434395;28;20053;-69
2024/01/07 00:36:53;;;;;;;10.55;9.48;;;;;;;1.79;100.00;101851.28;10419217;28;20044;-70
2024/01/07 00:41:53;;;;;;;12.45;9.95;;;;;;;1.73;100.00;101851.75;10418786;28;20095;-69
2024/01/07 00:46:54;;;;;;;12.57;10.32;;;;;;;1.71;100.00;101851.84;10417808;28;20033;-69
2024/01/07 00:51:54;;;;;;;10.18;9.18;;;;;;;1.65;100.00;101849.63;10417910;28;20032;-69
2024/01/07 00:56:54;;;;;;;12.65;10.50;;;;;;;1.73;100.00;101838.41;10416847;28;20403;-69
2024/01/07 01:01:55;;;;;;;13.25;10.40;;;;;;;1.65;100.00;101846.97;10417753;28;20068;-69
2024/01/07 01:06:55;;;;;;;11.32;10.23;;;;;;;1.70;100.00;101843.97;10420673;28;20034;-69
2024/01/07 01:11:56;;;;;;;12.10;10.70;;;;;;;1.65;100.00;101856.81;10418014;28;20026;-69
2024/01/07 01:16:56;;;;;;;12.95;9.95;;;;;;;1.55;100.00;101853.97;10416599;28;20095;-69
2024/01/07 01:21:57;;;;;;;9.73;8.75;;;;;;;1.58;100.00;101864.44;10421604;28;20048;-69
2024/01/07 01:26:57;;;;;;;13.55;11.50;;;;;;;1.57;100.00;101868.06;10426015;28;20424;-69
2024/01/07 01:31:57;;;;;;;12.10;10.57;;;;;;;1.49;100.00;101859.78;10421820;28;20162;-69
2024/01/07 01:36:59;;;;;;;11.77;10.57;;;;;;;1.52;100.00;101872.88;10415810;28;20088;-70
2024/01/07 01:41:59;;;;;;;12.98;10.43;;;;;;;1.52;100.00;101884.41;10416894;28;20047;-69
2024/01/07 01:47:00;;;;;;;14.45;10.55;;;;;;;1.47;100.00;101883.94;10416845;28;20033;-69
2024/01/07 01:52:00;;;;;;;12.70;11.32;;;;;;;1.52;100.00;101892.41;10413841;28;20480;-69
2024/01/07 01:57:01;;;;;;;10.88;9.40;;;;;;;1.50;100.00;101894.38;10414412;28;20040;-69
2024/01/07 02:02:01;;;;;;;14.55;9.93;;;;;;;1.49;100.00;101902.47;10415957;28;20017;-69
2024/01/07 02:07:02;;;;;;;12.50;11.07;;;;;;;1.50;100.00;101901.50;10415431;28;20112;-69
2024/01/07 02:12:05;;;;;;;13.50;11.65;;;;;;;1.43;100.00;101898.44;10416044;28;20026;-69
2024/01/07 02:17:06;;;;;;;12.52;10.52;;;;;;;1.53;100.00;101911.94;10419255;28;20128;-69
2024/01/07 02:22:07;;;;;;;16.35;11.40;;;;;;;1.53;100.00;101911.94;10398760;28;20044;-69
2024/01/07 02:27:07;;;;;;;15.00;12.73;;;;;;;1.50;100.00;101915.72;10413707;28;20361;-68
2024/01/07 02:32:07;;;;;;;12.50;11.20;;;;;;;1.54;100.00;101919.03;10414231;28;20053;-70
2024/01/07 02:37:08;;;;;;;17.30;10.85;;;;;;;1.48;100.00;101914.13;10414610;28;20125;-69
2024/01/07 02:42:08;;;;;;;12.40;11.18;;;;;;;1.42;100.00;101923.44;10415329;28;20306;-69
2024/01/07 02:47:08;;;;;;;11.32;9.35;;;;;;;1.50;100.00;101922.84;10414832;28;20044;-70
2024/01/07 02:52:09;;;;;;;10.48;9.23;;;;;;;1.41;100.00;101923.56;10413363;28;20036;-68
2024/01/07 02:57:09;;;;;;;11.80;10.63;;;;;;;1.43;100.00;101927.78;10428617;28;20441;-69
2024/01/07 03:02:09;;;;;;;11.75;9.90;;;;;;;1.50;100.00;101929.06;10417341;28;20037;-69
2024/01/07 03:07:10;;;;;;;11.07;8.27;;;;;;;1.40;100.00;101938.69;10417840;28;20135;-69
2024/01/07 03:12:10;;;;;;;9.88;8.98;;;;;;;1.41;100.00;101951.09;10412388;28;20029;-69
2024/01/07 03:17:11;;;;;;;12.10;9.40;;;;;;;1.45;100.00;101951.72;10413687;28;20457;-69
2024/01/07 03:22:11;;;;;;;11.65;10.50;;;;;;;1.45;100.00;101962.41;10413667;28;20048;-69
2024/01/07 03:27:11;;;;;;;7.75;6.95;;;;;;;1.46;100.00;101962.28;10412360;28;20119;-69
2024/01/07 03:32:12;;;;;;;10.32;8.18;;;;;;;1.43;100.00;101959.81;10414351;28;20468;-69
2024/01/07 03:37:12;;;;;;;12.40;8.65;;;;;;;1.44;100.00;101972.22;10413045;28;20041;-69
2024/01/07 03:42:13;;;;;;;9.93;8.95;;;;;;;1.40;100.00;101986.75;10412105;28;20029;-69
2024/01/07 03:47:13;;;;;;;10.80;9.68;;;;;;;1.47;100.00;101979.13;10412407;28;20029;-69
2024/01/07 03:52:14;;;;;;;12.25;9.88;;;;;;;1.50;100.00;101978.91;10414017;28;20059;-70
2024/01/07 03:57:14;;;;;;;11.98;9.52;;;;;;;1.31;100.00;102006.97;10413304;28;20029;-69
2024/01/07 04:02:16;;;;;;;13.77;11.27;;;;;;;1.25;100.00;102006.53;10414913;28;20076;-69
2024/01/07 04:07:16;;;;;;;12.77;9.98;;;;;;;1.12;100.00;102001.22;10420415;28;20055;-69
2024/01/07 04:12:17;;;;;;;14.10;9.80;;;;;;;1.16;100.00;102011.56;10419126;28;20029;-69
2024/01/07 04:17:17;;;;;;;12.43;11.10;;;;;;;1.05;100.00;102019.47;10420155;28;20037;-69
2024/01/07 04:22:17;;;;;;;14.80;10.93;;;;;;;1.02;100.00;102022.38;10419928;28;20033;-69
2024/01/07 04:27:18;;;;;;;13.73;11.63;;;;;;;1.07;100.00;102028.22;10419319;28;20049;-69
2024/01/07 04:32:19;;;;;;;18.85;14.02;;;;;;;1.03;100.00;102032.06;10419595;28;20432;-69
2024/01/07 04:37:19;;;;;;;14.85;13.05;;;;;;;0.95;100.00;102044.22;10417488;28;20071;-69
2024/01/07 04:42:20;;;;;;;15.32;13.73;;;;;;;0.91;100.00;102039.09;10418560;28;20373;-69
2024/01/07 04:47:30;;;;;;;15.23;12.55;;;;;;;0.90;100.00;102048.06;10418501;28;20065;-70
2024/01/07 04:52:31;;;;;;;16.65;12.63;;;;;;;0.84;100.00;102055.66;10401559;28;20116;-69
2024/01/07 04:57:31;;;;;;;19.20;15.27;;;;;;;0.92;100.00;102055.94;10417953;28;20404;-70
2024/01/07 05:02:31;;;;;;;18.15;14.35;;;;;;;0.99;100.00;102059.94;10425946;28;20033;-69
2024/01/07 05:07:32;;;;;;;15.13;13.65;;;;;;;1.02;100.00;102070.38;10419827;28;20473;-69
2024/01/07 05:12:32;;;;;;;16.95;13.57;;;;;;;0.95;100.00;102065.56;10418111;28;20077;-69
2024/01/07 05:17:33;;;;;;;17.92;15.43;;;;;;;0.98;100.00;102079.53;10417476;28;20029;-69
2024/01/07 05:22:33;;;;;;;13.82;10.98;;;;;;;0.89;100.00;102078.38;10417520;28;20037;-69
2024/01/07 05:27:34;;;;;;;16.92;13.63;;;;;;;0.78;100.00;102088.91;10417132;28;20068;-69
2024/01/07 05:32:34;;;;;;;13.60;12.30;;;;;;;0.75;100.00;102096.28;10417853;28;20045;-70
2024/01/07 05:37:34;;;;;;;16.05;12.48;;;;;;;0.60;100.00;102106.16;10415249;28;20037;-69
2024/01/07 05:42:35;;;;;;;17.23;11.75;;;;;;;0.66;100.00;102113.72;10416731;28;20472;-69
2024/01/07 05:47:35;;;;;;;11.80;10.65;;;;;;;0.59;100.00;102118.63;10417006;28;20033;-69
2024/01/07 05:52:36;;;;;;;13.18;11.85;;;;;;;0.59;100.00;102120.44;10416224;28;20359;-69
2024/01/07 05:57:36;;;;;;;14.48;11.88;;;;;;;0.55;100.00;102140.28;10417588;28;20322;-69
2024/01/07 06:02:38;;;;;;;14.63;13.05;;;;;;;0.61;100.00;102139.88;10415470;28;20052;-69
2024/01/07 06:07:38;;;;;;;18.35;14.57;;;;;;;0.64;100.00;102153.00;10417375;28;20104;-70
2024/01/07 06:12:39;;;;;;;14.70;12.80;;;;;;;0.55;100.00;102154.44;10413975;28;20037;-69
2024/01/07 06:17:39;;;;;;;16.75;14.30;;;;;;;0.52;100.00;102159.13;10413609;28;20098;-69
2024/01/07 06:22:39;;;;;;;17.05;14.90;;;;;;;0.53;100.00;102167.00;10417347;28;20036;-69
2024/01/07 06:27:41;;;;;;;17.15;15.05;;;;;;;0.51;100.00;102168.06;10415916;28;20044;-69
2024/01/07 06:32:41;;;;;;;19.42;15.32;;;;;;;0.55;100.00;102177.59;10417245;28;20389;-69
2024/01/07 06:37:42;;;;;;;28.27;18.48;;;;;;;0.63;100.00;102178.75;10415624;28;20045;-69
2024/01/07 06:42:43;;;;;;;20.90;15.38;;;;;;;0.64;100.00;102191.16;10414693;28;20453;-69
2024/01/07 06:47:44;;;;;;;21.50;16.67;;;;;;;0.65;100.00;102198.19;10414411;28;20056;-69
2024/01/07 06:52:44;;;;;;;27.25;18.70;;;;;;;0.74;100.00;102207.41;10414561;28;20029;-69
2024/01/07 06:57:44;;;;;;;17.90;14.40;;;;;;;0.75;100.00;102211.75;10414248;28;20549;-69
2024/01/07 07:02:45;;;;;;;19.08;15.63;;;;;;;0.62;100.00;102227.72;10414313;28;20037;-69
2024/01/07 07:07:45;;;;;;;20.60;15.40;;;;;;;0.62;100.00;102229.53;10412610;28;20116;-69
2024/01/07 07:12:46;;;;;;;23.15;16.55;;;;;;;0.59;100.00;102224.41;10417506;28;20559;-69
2024/01/07 07:17:46;;;;;;;16.50;12.90;;;;;;;0.62;100.00;102243.72;10400683;28;20484;-69
2024/01/07 07:22:47;;;;;;;20.92;15.43;;;;;;;0.62;100.00;102241.03;10413832;28;20067;-69
2024/01/07 07:27:47;;;;;;;21.05;16.65;;;;;;;0.67;100.00;102254.06;10412772;28;20467;-69
2024/01/07 07:32:47;;;;;;;22.45;15.48;;;;;;;0.81;100.00;102263.84;10414596;28;20133;-69
2024/01/07 07:37:48;;;;;;;22.13;16.75;;;;;;;0.84;100.00;102267.16;10420516;28;20092;-69
2024/01/07 07:42:49;;;;;;;21.02;16.02;;;;;;;0.87;100.00;102279.44;10422093;28;20045;-69
2024/01/07 07:47:49;;;;;;;23.90;16.85;;;;;;;0.80;100.00;102280.78;10419568;28;20136;-69
2024/01/07 07:52:49;;;;;;;15.70;13.65;;;;;;;0.77;100.00;102295.19;10423087;28;20465;-70
2024/01/07 07:57:51;;;;;;;16.25;13.85;;;;;;;0.77;100.00;102297.00;10402502;28;20038;-69
2024/01/07 08:02:52;;;;;;;17.40;10.23;;;;;;;0.63;100.00;102301.38;10420264;28;20036;-69
2024/01/07 08:07:52;;;;;;;14.38;10.85;;;;;;;0.58;100.00;102308.00;10418179;28;20113;-69
2024/01/07 08:12:52;;;;;;;10.45;9.40;;;;;;;0.55;100.00;102330.38;10419545;28;20048;-69
2024/01/07 08:17:53;;;;;;;12.55;11.35;;;;;;;0.44;100.00;102332.84;10434740;28;20546;-69
2024/01/07 08:22:53;;;;;;;15.20;12.23;;;;;;;0.46;100.00;102336.28;10418616;28;20033;-69
2024/01/07 08:27:53;;;;;;;11.98;10.75;;;;;;;0.50;100.00;102336.94;10419073;28;20033;-69
2024/01/07 08:32:54;;;;;;;11.75;10.55;;;;;;;0.48;100.00;102361.03;10418646;28;20049;-68
2024/01/07 08:37:54;;;;;;;13.55;12.10;;;;;;;0.35;100.00;102358.28;10418104;28;20440;-68
2024/01/07 08:42:55;;;;;;;14.65;13.20;;;;;;;0.48;100.00;102369.03;10419179;28;20029;-69
2024/01/07 08:47:55;;;;;;;12.40;10.45;;;;;;;0.39;100.00;102373.09;10416801;28;20065;-70
2024/01/07 08:52:55;;;;;;;9.50;7.85;;;;;;;0.39;100.00;102388.25;10419831;28;20382;-69
2024/01/07 08:57:56;;;;;;;13.35;9.38;;;;;;;0.50;100.00;102387.56;10421327;28;20056;-69
2024/01/07 09:02:57;;;;;;;11.43;9.63;;;;;;;0.53;100.00;102382.91;10418430;28;20354;-69
2024/01/07 09:07:57;;;;;;;11.40;10.15;;;;;;;0.54;100.00;102387.28;10416315;28;20037;-69
2024/01/07 09:12:58;;;;;;;12.32;10.65;;;;;;;0.59;100.00;102387.00;10417795;28;20056;-69
2024/01/07 09:17:58;;;;;;;10.95;9.00;;;;;;;0.50;100.00;102395.56;10416817;28;20136;-69
2024/01/07 09:22:59;;;;;;;12.73;10.18;;;;;;;0.40;100.00;102412.13;10417062;28;20377;-67
2024/01/07 09:27:59;;;;;;;10.73;9.10;;;;;;;0.45;100.00;102419.84;10416265;28;20034;-69
2024/01/07 09:33:00;;;;;;;14.00;11.23;;;;;;;0.52;100.00;102421.19;10432032;28;20187;-69
2024/01/07 09:38:00;;;;;;;11.10;9.90;;;;;;;0.64;100.00;102432.91;10417825;28;20072;-69
2024/01/07 09:43:00;;;;;;;7.03;6.30;;;;;;;0.44;100.00;102448.28;10415425;28;20136;-69
2024/01/07 09:48:01;;;;;;;10.65;9.43;;;;;;;0.44;100.00;102444.75;10415010;28;20392;-69
2024/01/07 09:53:02;;;;;;;9.65;8.63;;;;;;;0.34;100.00;102456.94;10415612;28;20056;-69
2024/01/07 09:58:02;;;;;;;11.60;9.48;;;;;;;0.25;100.00;102474.31;10416391;28;20477;-69
2024/01/07 10:03:03;;;;;;;9.95;8.70;;;;;;;0.30;100.00;102479.41;10414704;28;20121;-69
2024/01/07 10:08:04;;;;;;;10.50;9.50;;;;;;;0.35;100.00;102471.97;10413336;28;20107;-68
2024/01/07 10:13:04;;;;;;;11.38;10.38;;;;;;;0.15;100.00;102475.84;10414416;28;20037;-69
2024/01/07 10:18:06;;;;;;;11.80;8.68;;;;;;;0.17;100.00;102487.25;10415052;28;20078;-69
2024/01/07 10:23:07;;;;;;;10.60;8.93;;;;;;;0.05;100.00;102480.84;10412815;28;20021;-69
2024/01/07 10:28:08;;;;;;;12.30;9.45;;;;;;;0.19;100.00;102501.34;10414029;28;20033;-69
2024/01/07 10:33:08;;;;;;;9.23;8.10;;;;;;;0.28;100.00;102502.59;10414495;28;20467;-69
2024/01/07 10:38:09;;;;;;;10.00;8.13;;;;;;;0.18;100.00;102511.13;10412831;28;20473;-69
2024/01/07 10:43:09;;;;;;;7.53;6.65;;;;;;;0.18;100.00;102510.28;10412645;28;20021;-69
2024/01/07 10:48:09;;;;;;;10.63;6.43;;;;;;;0.20;100.00;102511.91;10416196;28;20425;-69
2024/01/07 10:53:11;;;;;;;10.65;8.15;;;;;;;0.09;100.00;102493.03;10411777;28;20412;-69
2024/01/07 10:58:11;;;;;;;9.02;7.40;;;;;;;0.21;100.00;102499.44;10412752;28;20115;-69
2024/01/07 11:03:28;;;;;;;8.70;6.45;;;;;;;0.23;100.00;102497.56;10412654;28;20104;-69
2024/01/07 11:08:36;;;;;;;;;;;;;;;0.28;100.00;102505.25;10428630;28;20060;-68
2024/01/07 11:13:38;;;;;;;10.48;6.82;;;;;;;0.37;100.00;102507.38;10411895;28;19916;-69
2024/01/07 11:18:51;;;;;;;9.55;6.47;;;;;;;0.38;100.00;102517.09;10412394;28;20354;-69
2024/01/07 11:23:52;;;;;;;9.38;6.80;;;;;;;0.70;100.00;102509.81;10412904;28;20338;-69
2024/01/07 11:28:57;;;;;;;8.05;6.65;;;;;;;0.60;100.00;102498.84;10427539;28;20030;-69
2024/01/07 11:33:57;;;;;;;6.07;5.60;;;;;;;0.44;100.00;102516.72;10410975;28;20057;-69
2024/01/07 11:38:57;;;;;;;5.95;5.45;;;;;;;0.43;100.00;102517.69;10411838;28;20428;-69
2024/01/07 11:44:02;;;;;;;7.13;5.65;;;;;;;0.47;100.00;102521.88;10411124;28;20068;-69
2024/01/07 11:49:03;;;;;;;7.13;6.30;;;;;;;0.50;100.00;102528.84;10426006;28;20317;-69
2024/01/07 11:54:04;;;;;;;6.85;5.93;;;;;;;0.56;100.00;102523.13;10411553;28;20030;-68
2024/01/07 11:59:04;;;;;;;7.38;5.47;;;;;;;0.25;100.00;102529.44;10409335;28;20040;-69
2024/01/07 12:04:05;;;;;;;7.70;5.07;;;;;;;0.30;100.00;102524.69;10412700;28;20030;-69
2024/01/07 12:09:05;;;;;;;4.82;4.40;;;;;;;0.48;100.00;102523.59;10412296;28;20031;-69
2024/01/07 12:14:06;;;;;;;5.65;5.05;;;;;;;1.80;100.00;102518.84;10410040;28;20397;-69
2024/01/07 12:19:08;;;;;;;6.13;5.15;;;;;;;2.59;100.00;102521.59;10411488;28;20032;-69
2024/01/07 12:24:09;;;;;;;4.88;4.47;;;;;;;3.23;100.00;102541.19;10433373;28;20034;-69
2024/01/07 12:29:11;;;;;;;8.60;4.07;;;;;;;3.19;100.00;102527.16;10422141;28;20041;-70
2024/01/07 12:34:12;;;;;;;4.63;4.00;;;;;;;2.92;100.00;102537.97;10435340;28;20049;-69
2024/01/07 12:39:12;;;;;;;5.95;4.07;;;;;;;2.23;100.00;102531.16;10435117;28;20033;-69
2024/01/07 12:44:13;;;;;;;16.30;4.85;;;;;;;1.57;100.00;102539.03;10420365;28;20033;-69
2024/01/07 12:49:13;;;;;;;5.85;4.72;;;;;;;1.89;100.00;102544.09;10417973;28;20098;-69
2024/01/07 12:54:13;;;;;;;7.38;4.07;;;;;;;2.48;100.00;102536.53;10417617;28;20298;-69
2024/01/07 12:59:14;;;;;;;6.38;3.40;;;;;;;2.40;100.00;102540.72;10416816;28;20025;-69
2024/01/07 13:04:14;;;;;;;5.00;3.60;;;;;;;1.76;100.00;102525.34;10420174;28;20124;-69
2024/01/07 13:09:15;;;;;;;3.08;2.88;;;;;;;1.52;100.00;102540.28;10438785;28;20026;-69
2024/01/07 13:14:15;;;;;;;2.75;2.65;;;;;;;1.53;100.00;102542.84;10436006;28;20029;-70
2024/01/07 13:19:16;;;;;;;3.13;2.80;;;;;;;1.29;100.00;102552.41;10416873;28;20040;-69
2024/01/07 13:24:16;;;;;;;3.13;2.92;;;;;;;1.06;100.00;102554.72;10414453;28;20460;-69
2024/01/07 13:29:16;;;;;;;2.63;2.45;;;;;;;0.94;100.00;102566.13;10417975;28;20083;-69
2024/01/07 13:34:17;;;;;;;2.67;2.55;;;;;;;0.85;100.00;102572.88;10416245;28;20069;-69
2024/01/07 13:39:18;;;;;;;3.05;2.78;;;;;;;0.78;100.00;102581.34;10416048;28;20025;-69
2024/01/07 13:44:19;;;;;;;2.42;2.20;;;;;;;0.93;100.00;102575.09;10416163;28;20137;-70
2024/01/07 13:49:19;;;;;;;4.70;3.55;;;;;;;1.03;100.00;102581.56;10415598;28;20029;-69
2024/01/07 13:54:20;;;;;;;2.40;2.28;;;;;;;0.88;100.00;102603.84;10415296;28;20365;-69
2024/01/07 13:59:20;;;;;;;2.55;2.35;;;;;;;0.87;100.00;102605.66;10416198;28;20060;-69
2024/01/07 14:04:22;;;;;;;3.05;2.83;;;;;;;1.06;100.00;102616.06;10415287;28;20420;-69
2024/01/07 14:09:23;;;;;;;4.82;3.30;;;;;;;1.26;100.00;102617.50;10414674;28;20025;-69
2024/01/07 14:14:23;;;;;;;8.10;2.95;;;;;;;1.47;100.00;102612.66;10414496;28;20025;-70
2024/01/07 14:19:23;;;;;;;3.70;2.17;;;;;;;1.42;100.00;102622.75;10414280;28;20036;-70
2024/01/07 14:24:24;;;;;;;2.58;2.45;;;;;;;1.15;100.00;102634.19;10414071;28;20073;-70
2024/01/07 14:29:24;;;;;;;3.03;2.75;;;;;;;0.63;100.00;102647.97;10413275;28;20083;-70
2024/01/07 14:34:25;;;;;;;2.95;2.78;;;;;;;0.33;100.00;102660.41;10413576;28;20049;-70
2024/01/07 14:39:25;;;;;;;2.63;2.28;;;;;;;-0.11;100.00;102659.28;10418441;28;20022;-69
2024/01/07 14:44:26;;;;;;;4.95;3.05;;;;;;;-0.40;100.00;102671.53;10413200;28;20049;-69
2024/01/07 14:49:26;;;;;;;3.22;3.03;;;;;;;-0.43;100.00;102685.00;10413582;28;20025;-70
2024/01/07 14:54:27;;;;;;;3.25;2.95;;;;;;;-0.49;100.00;102693.31;10417486;28;20116;-69
2024/01/07 14:59:27;;;;;;;1.95;1.85;;;;;;;-0.48;100.00;102687.94;10415179;28;20037;-69
2024/01/07 15:04:28;;;;;;;2.60;2.45;;;;;;;-0.44;100.00;102691.28;10413978;28;20508;-70
2024/01/07 15:09:28;;;;;;;2.22;2.00;;;;;;;-0.49;100.00;102717.28;10414160;28;20035;-68
2024/01/07 15:14:28;;;;;;;2.83;2.38;;;;;;;-0.64;100.00;102708.28;10414913;28;20061;-68
2024/01/07 15:19:29;;;;;;;3.70;2.92;;;;;;;-0.67;100.00;102716.44;10418534;28;20041;-68
2024/01/07 15:24:30;;;;;;;2.75;2.63;;;;;;;-0.79;100.00;102717.94;10418282;28;20041;-69
2024/01/07 15:29:30;;;;;;;2.88;2.67;;;;;;;-0.87;100.00;102725.44;10421055;28;20032;-69
2024/01/07 15:34:30;;;;;;;3.33;2.88;;;;;;;-0.91;100.00;102737.19;10419341;28;20120;-69
2024/01/07 15:39:31;;;;;;;3.03;2.45;;;;;;;-1.00;100.00;102751.78;10417023;28;20029;-69
2024/01/07 15:44:31;;;;;;;5.80;2.97;;;;;;;-1.07;100.00;102752.19;10433731;28;20033;-68
2024/01/07 15:49:32;;;;;;;3.55;3.25;;;;;;;-1.09;100.00;102767.34;10412891;28;20056;-74
2024/01/07 15:54:32;;;;;;;2.85;2.67;;;;;;;-1.12;100.00;102760.38;10412209;28;20029;-69
2024/01/07 15:59:33;;;;;;;6.78;3.20;;;;;;;-1.20;100.00;102771.41;10417602;28;20087;-68
2024/01/07 16:04:33;;;;;;;2.92;2.67;;;;;;;-1.21;100.00;102782.13;10420595;28;20029;-69
2024/01/07 16:09:35;;;;;;;4.05;3.75;;;;;;;-1.20;100.00;102790.00;10419139;28;20080;-69
2024/01/07 16:14:36;;;;;;;3.22;3.03;;;;;;;-1.21;100.00;102790.94;10419356;28;20041;-69
2024/01/07 16:19:36;;;;;;;4.35;3.95;;;;;;;-1.28;100.00;102815.22;10420054;28;20025;-69
2024/01/07 16:24:41;;;;;;;3.75;3.45;;;;;;;-1.36;100.00;102810.28;10420036;28;20060;-69
2024/01/07 16:29:41;;;;;;;3.95;3.65;;;;;;;-1.38;100.00;102814.81;10419001;28;20025;-69
2024/01/07 16:34:42;;;;;;;4.40;3.95;;;;;;;-1.37;100.00;102829.84;10420419;28;20412;-69
2024/01/07 16:39:42;;;;;;;3.75;3.45;;;;;;;-1.40;100.00;102835.28;10419527;28;20036;-69
2024/01/07 16:44:43;;;;;;;3.85;3.55;;;;;;;-1.46;100.00;102832.91;10419056;28;20037;-69
2024/01/07 16:49:43;;;;;;;4.60;4.20;;;;;;;-1.55;100.00;102838.66;10418188;28;20480;-69
2024/01/07 16:54:46;;;;;;;6.55;4.30;;;;;;;-1.46;100.00;102849.72;10432685;28;20088;-69
2024/01/07 16:59:47;;;;;;;7.28;3.75;;;;;;;-1.56;100.00;102861.72;10417353;28;20141;-69
2024/01/07 17:04:47;;;;;;;3.42;3.13;;;;;;;-1.50;100.00;102863.19;10416608;28;20037;-69
2024/01/07 17:09:47;;;;;;;7.55;4.38;;;;;;;-1.51;100.00;102872.13;10416585;28;20191;-70
2024/01/07 17:14:51;;;;;;;31.70;3.67;;;;;;;-1.52;100.00;102875.72;10417545;28;20186;-69
2024/01/07 17:19:51;;;;;;;6.40;3.25;;;;;;;-1.55;100.00;102890.00;10416795;28;20410;-69
2024/01/07 17:24:52;;;;;;;4.30;3.75;;;;;;;-1.50;100.00;102897.75;10417381;28;20034;-69
2024/01/07 17:29:52;;;;;;;9.30;3.90;;;;;;;-1.53;100.00;102895.22;10416388;28;20021;-69
2024/01/07 17:34:54;;;;;;;5.55;4.68;;;;;;;-1.60;100.00;102904.41;10417580;28;20061;-69
2024/01/07 17:39:54;;;;;;;5.47;4.90;;;;;;;-1.54;100.00;102896.16;10415378;28;20088;-68
2024/01/07 17:44:55;;;;;;;4.47;3.65;;;;;;;-1.51;100.00;102907.50;10415542;28;20096;-69
2024/01/07 17:49:56;;;;;;;4.78;3.15;;;;;;;-1.43;100.00;102917.81;10416182;28;20032;-70
2024/01/07 17:54:56;;;;;;;6.80;4.82;;;;;;;-1.52;100.00;102920.88;10413318;28;20075;-69
2024/01/07 18:00:02;;;;;;;4.88;4.47;;;;;;;-1.45;100.00;102924.97;10415664;28;20180;-69
2024/01/07 18:05:03;;;;;;;6.05;5.55;;;;;;;-1.48;100.00;102933.09;10415478;28;20029;-69
2024/01/07 18:10:06;;;;;;;6.15;5.63;;;;;;;-1.58;100.00;102937.09;10414199;28;20392;-69
2024/01/07 18:15:07;;;;;;;5.80;5.15;;;;;;;-1.69;100.00;102933.13;10414742;28;20029;-71
2024/01/07 18:20:10;;;;;;;4.72;4.25;;;;;;;-1.62;100.00;102935.50;10413056;28;20438;-69
2024/01/07 18:25:10;;;;;;;5.63;5.20;;;;;;;-1.64;100.00;102941.75;10418018;28;20034;-69
2024/01/07 18:30:11;;;;;;;6.70;4.93;;;;;;;-1.57;100.00;102950.28;10413356;28;20037;-68
2024/01/07 18:35:12;;;;;;;6.43;5.05;;;;;;;-1.51;100.00;102962.44;10413237;28;20063;-69
2024/01/07 18:40:13;;;;;;;11.18;4.70;;;;;;;-1.56;100.00;102962.66;10412678;28;20025;-69
2024/01/07 18:45:14;;;;;;;5.78;4.50;;;;;;;-1.54;100.00;102970.56;10413741;28;20033;-69
2024/01/07 18:50:15;;;;;;;6.82;5.70;;;;;;;-1.48;100.00;102978.25;10414108;28;20428;-69
2024/01/07 18:55:17;;;;;;;5.20;4.78;;;;;;;-1.50;100.00;102993.41;10413175;28;20354;-69
2024/01/07 19:00:17;;;;;;;4.80;4.40;;;;;;;-1.59;100.00;102981.41;10413384;28;20102;-69
2024/01/07 19:05:18;;;;;;;6.65;5.97;;;;;;;-1.56;100.00;102998.97;10413075;28;20416;-69
2024/01/07 19:10:18;;;;;;;4.40;4.13;;;;;;;-1.56;100.00;103004.28;10419856;28;20045;-70
2024/01/07 19:15:22;;;;;;;10.23;5.53;;;;;;;-1.62;100.00;103008.09;10425387;28;20033;-69
2024/01/07 19:20:30;;;;;;;10.40;5.60;;;;;;;-1.56;100.00;103006.94;10419308;28;20025;-69
2024/01/07 19:25:30;;;;;;;5.72;5.13;;;;;;;-1.66;100.00;103012.69;10414869;28;20041;-69
2024/01/07 19:30:32;;;;;;;8.13;5.20;;;;;;;-1.66;100.00;103014.44;10412362;28;20038;-68
2024/01/07 19:35:34;;;;;;;8.75;5.03;;;;;;;-1.63;100.00;103019.63;10427067;28;20469;-69
2024/01/07 19:40:34;;;;;;;6.65;5.95;;;;;;;-1.64;100.00;103025.88;10426843;28;20034;-69
2024/01/07 19:45:35;;;;;;;7.97;5.63;;;;;;;-1.69;100.00;103036.72;10424749;28;20337;-68
2024/01/07 19:50:35;;;;;;;5.38;4.88;;;;;;;-1.66;100.00;103033.94;10425922;28;20034;-69
2024/01/07 19:55:35;;;;;;;9.93;6.03;;;;;;;-1.61;100.00;103036.38;10428551;28;20401;-69
2024/01/07 20:00:36;;;;;;;6.35;5.78;;;;;;;-1.62;100.00;103036.47;10425555;28;20032;-69
2024/01/07 20:05:37;;;;;;;8.60;5.40;;;;;;;-1.73;100.00;103032.44;10425407;28;20033;-68
2024/01/07 20:10:37;;;;;;;13.93;6.45;;;;;;;-1.74;100.00;103029.88;10423948;28;20369;-69
2024/01/07 20:15:38;;;;;;;8.48;5.50;;;;;;;-1.89;100.00;103034.88;10426674;28;20040;-69
2024/01/07 20:20:38;;;;;;;12.57;7.20;;;;;;;-2.00;100.00;103045.09;10425219;28;20029;-68
2024/01/07 20:25:38;;;;;;;10.75;7.25;;;;;;;-2.08;100.00;103041.88;10424882;28;20049;-68
2024/01/07 20:30:39;;;;;;;8.30;7.32;;;;;;;-2.14;100.00;103050.09;10424970;28;20053;-69
2024/01/07 20:35:40;;;;;;;6.65;5.97;;;;;;;-2.19;100.00;103050.31;10428789;28;20056;-69
2024/01/07 20:40:40;;;;;;;10.13;6.28;;;;;;;-2.36;100.00;103039.50;10427341;28;20341;-68
2024/01/07 20:45:41;;;;;;;10.90;7.50;;;;;;;-2.41;100.00;103039.69;10419121;28;20052;-69
2024/01/07 20:50:41;;;;;;;9.00;6.10;;;;;;;-2.45;100.00;103042.53;10417990;28;20044;-68
2024/01/07 20:55:42;;;;;;;9.32;6.75;;;;;;;-2.47;100.00;103045.22;10416856;28;20465;-68
2024/01/07 21:00:44;;;;;;;16.02;7.30;;;;;;;-2.49;100.00;103054.16;10415878;28;20029;-69
2024/01/07 21:05:45;;;;;;;11.23;6.70;;;;;;;-2.53;100.00;103049.91;10417894;28;20032;-68
2024/01/07 21:10:46;;;;;;;9.20;6.88;;;;;;;-2.58;100.00;103056.25;10417004;28;20026;-68
2024/01/07 21:15:47;;;;;;;11.98;7.47;;;;;;;-2.62;100.00;103049.34;10418146;28;20040;-68
2024/01/07 21:20:49;;;;;;;7.45;6.85;;;;;;;-2.65;100.00;103057.44;10415834;28;20376;-68
2024/01/07 21:25:49;;;;;;;12.70;8.25;;;;;;;-2.69;100.00;103065.53;10417005;28;20536;-69
2024/01/07 21:30:50;;;;;;;12.52;7.93;;;;;;;-2.74;100.00;103062.19;10415678;28;20053;-68
2024/01/07 21:35:50;;;;;;;8.10;7.40;;;;;;;-2.70;100.00;103056.72;10415979;28;20464;-68
2024/01/07 21:40:53;;;;;;;9.40;8.38;;;;;;;-2.68;100.00;103057.53;10415849;28;20087;-68
2024/01/07 21:45:53;;;;;;;9.02;7.68;;;;;;;-2.75;100.00;103058.69;10416011;28;20472;-68
2024/01/07 21:50:54;;;;;;;13.02;8.68;;;;;;;-2.77;100.00;103057.88;10416038;28;20029;-69
2024/01/07 21:55:54;;;;;;;13.95;9.05;;;;;;;-2.82;100.00;103065.16;10415403;28;20034;-69
2024/01/07 22:00:55;;;;;;;12.55;8.50;;;;;;;-2.89;100.00;103061.84;10415297;28;20128;-69
2024/01/07 22:05:55;;;;;;;8.73;7.93;;;;;;;-2.84;100.00;103057.25;10414927;28;20108;-70
2024/01/07 22:10:55;;;;;;;18.13;8.35;;;;;;;-2.88;100.00;103057.41;10415387;28;20037;-69
2024/01/07 22:15:56;;;;;;;11.48;8.40;;;;;;;-2.79;100.00;103075.63;10417098;28;20033;-69
2024/01/07 22:20:56;;;;;;;14.13;8.35;;;;;;;-2.77;100.00;103073.81;10415113;28;20057;-69
2024/01/07 22:25:56;;;;;;;10.02;8.57;;;;;;;-2.77;100.00;103076.44;10414888;28;20045;-69
2024/01/07 22:30:57;;;;;;;10.82;7.10;;;;;;;-2.79;100.00;103072.97;10414261;28;20092;-69
2024/01/07 22:35:57;;;;;;;11.07;7.78;;;;;;;-2.88;100.00;103079.47;10413885;28;20021;-68
2024/01/07 22:40:58;;;;;;;8.05;7.18;;;;;;;-2.80;100.00;103095.13;10413627;28;20063;-68